Strona główna
METAR-TAF:

Lotnisko :

Katowice, Polska

Port lotniczy Katowice-Pyrzowice

Szerokość geograficzna: 50-28-27N, Długość geograficzna: 019-04-48E, wysokość: 284 m

Aktualna obserwacja pogody

Raport powstał 23 minut temu, godzina 00:00 UTC
Wiatr 5 kt od wschód
Temperatura 3°C
Wilgotność 100%
Ciśnienie 1019 hPa
Widzialność: 3100 m
zamglenie

METAR: EPKT 010000Z 08005KT 3100 BR NSC 03/03 Q1019

czas: 02:23 (00:23 UTC)

Prognoza

Raport powstał 53 minut temu, godzina 23:30 UTC
Prognoza ważna od 01 godzina 00 UTC do 01 godzina 24 UTC
Wiatr 6 kt od wschodnio-północny wschód
Widzialność 10 km lub więcej
Brak chmur poniżej 1500 m i brak chmur cumulonimbus
Prawdopodobieństwo 30% :
Przejściowo
od 01 godzina 00 UTC do 01 godzina 06 UTC
Przerywane chmury na wysokości 900 ft
Prawdopodobieństwo 40% :
Przejściowo
od 01 godzina 11 UTC do 01 godzina 16 UTC
Rozproszone chmury na wysokości 4000 ft, Cumulusy wypiętrznone.

TAF: EPKT 302330Z 0100/0124 06006KT CAVOK PROB30 TEMPO 0100/0106 BKN009 PROB40 TEMPO 0111/0116 SCT040TCU

METAR-TAF

Obserwacja i prognoza pogody dla ponad 4000 lotnisk (raport METAR i TAF).

Dostępne stacje oznaczono żółtymi i czerwonymi punktami na mapie.

Najedź kursorem aby zobaczyć nazwę stacji.

Kliknij aby zobaczyć obserwacje i prognozy pogody.

Aby zmienić mapę: kliknij na zielony przycisk z czarnym krzyżykiem, aby powiększyć; na zielony przycisk z myślnikiem, aby pomniejszyć; na zielone strzałki, aby przejść do map sąsiednich.


METAR-TAF: